Time;durP1;ratioP1;P1;durP2;ratioP2;P2;SDS_P1;SDS_P2;PMS_P1;PMS_P2;Temp;Humidity;BMP_temperature;BMP_pressure;BME280_temperature;BME280_humidity;BME280_pressure;Samples;Min_cycle;Max_cycle;Signal;HPM_P1;HPM_P2
2024/02/20 00:00:37;;;;;;;52.30;7.20;;;;;;;;;;5115052;28;20020;-58
2024/02/20 00:03:03;;;;;;;47.53;7.17;;;;;;;;;;5115772;28;20032;-57
2024/02/20 00:05:28;;;;;;;38.40;6.17;;;;;;;;;;5115347;28;20279;-58
2024/02/20 00:07:55;;;;;;;37.63;7.73;;;;;;;;;;5104869;28;20027;-59
2024/02/20 00:10:21;;;;;;;36.42;6.13;;;;;;;;;;5115010;28;20261;-60
2024/02/20 00:12:47;;;;;;;37.43;6.40;;;;;;;;;;5122547;28;20028;-58
2024/02/20 00:15:13;;;;;;;39.10;6.85;;;;;;;;;;5107492;28;20273;-61
2024/02/20 00:17:38;;;;;;;40.08;8.00;;;;;;;;;;5114157;28;20036;-58
2024/02/20 00:20:08;;;;;;;42.53;6.63;;;;;;;;;;5114815;28;20092;-58
2024/02/20 00:22:34;;;;;;;45.97;7.35;;;;;;;;;;5117261;28;20028;-59
2024/02/20 00:24:59;;;;;;;39.75;7.78;;;;;;;;;;5116024;28;20049;-57
2024/02/20 00:27:25;;;;;;;29.20;6.27;;;;;;;;;;5114875;28;20027;-58
2024/02/20 00:29:50;;;;;;;61.13;7.32;;;;;;;;;;5114859;28;20039;-59
2024/02/20 00:32:17;;;;;;;55.23;6.70;;;;;;;;;;5114745;28;20027;-55
2024/02/20 00:34:42;;;;;;;51.42;7.57;;;;;;;;;;5114626;28;20276;-56
2024/02/20 00:37:08;;;;;;;41.13;6.85;;;;;;;;;;5114647;28;20040;-57
2024/02/20 00:39:34;;;;;;;37.72;6.63;;;;;;;;;;5114298;28;20036;-59
2024/02/20 00:42:00;;;;;;;29.65;5.78;;;;;;;;;;5099978;28;20048;-59
2024/02/20 00:44:27;;;;;;;50.72;6.97;;;;;;;;;;5115008;28;20028;-58
2024/02/20 00:46:52;;;;;;;33.63;5.22;;;;;;;;;;5114542;28;20061;-57
2024/02/20 00:49:18;;;;;;;47.83;6.57;;;;;;;;;;5114746;28;20088;-57
2024/02/20 00:51:44;;;;;;;38.22;6.10;;;;;;;;;;5114278;28;20069;-58
2024/02/20 00:54:10;;;;;;;43.72;7.30;;;;;;;;;;5126521;28;20046;-59
2024/02/20 00:56:36;;;;;;;47.55;7.15;;;;;;;;;;5123730;28;20036;-58
2024/02/20 00:59:02;;;;;;;44.65;7.35;;;;;;;;;;5114613;28;20028;-59
2024/02/20 01:01:28;;;;;;;;;;;;;;;;;;5102370;28;20043;-57
2024/02/20 01:03:53;;;;;;;29.03;5.87;;;;;;;;;;5124759;28;19916;-55
2024/02/20 01:06:19;;;;;;;39.33;6.68;;;;;;;;;;5115728;28;20032;-58
2024/02/20 01:08:44;;;;;;;40.17;7.03;;;;;;;;;;5114110;28;20039;-58
2024/02/20 01:11:10;;;;;;;53.17;6.13;;;;;;;;;;5114198;28;20119;-57
2024/02/20 01:13:36;;;;;;;37.20;6.13;;;;;;;;;;5121655;28;20032;-57
2024/02/20 01:16:01;;;;;;;48.23;6.50;;;;;;;;;;5114898;28;20044;-60
2024/02/20 01:18:26;;;;;;;46.53;8.17;;;;;;;;;;5125383;28;20310;-57
2024/02/20 01:20:52;;;;;;;45.50;7.10;;;;;;;;;;5099070;28;20039;-57
2024/02/20 01:23:17;;;;;;;35.35;6.95;;;;;;;;;;5111999;28;20050;-59
2024/02/20 01:25:43;;;;;;;56.70;7.00;;;;;;;;;;5109510;28;20028;-59
2024/02/20 01:28:10;;;;;;;52.17;6.82;;;;;;;;;;5117179;28;20275;-55
2024/02/20 01:30:36;;;;;;;56.42;7.57;;;;;;;;;;5116927;28;20100;-57
2024/02/20 01:33:01;;;;;;;37.58;7.55;;;;;;;;;;5117483;28;20057;-59
2024/02/20 01:35:27;;;;;;;39.45;6.85;;;;;;;;;;5120171;28;20036;-58
2024/02/20 01:37:53;;;;;;;45.03;6.23;;;;;;;;;;5113473;28;20039;-58
2024/02/20 01:40:19;;;;;;;26.40;5.83;;;;;;;;;;5104697;28;20264;-58
2024/02/20 01:42:57;;;;;;;42.80;5.80;;;;;;;;;;5125623;28;20035;-58
2024/02/20 01:45:24;;;;;;;32.63;6.60;;;;;;;;;;5124631;28;20066;-57
2024/02/20 01:47:49;;;;;;;45.40;5.50;;;;;;;;;;5117505;28;20024;-57
2024/02/20 01:50:14;;;;;;;58.97;6.47;;;;;;;;;;5117412;28;20076;-59
2024/02/20 01:52:40;;;;;;;33.50;5.40;;;;;;;;;;5124578;28;20083;-59
2024/02/20 01:55:06;;;;;;;40.92;6.40;;;;;;;;;;5124611;28;20040;-58
2024/02/20 01:57:32;;;;;;;39.80;5.93;;;;;;;;;;5117579;28;20083;-58
2024/02/20 01:59:58;;;;;;;34.47;6.10;;;;;;;;;;5116487;28;20035;-57
2024/02/20 02:02:23;;;;;;;42.40;7.85;;;;;;;;;;5120884;28;20024;-56
2024/02/20 02:04:49;;;;;;;39.13;6.88;;;;;;;;;;5116385;28;20047;-58
2024/02/20 02:07:15;;;;;;;38.00;5.40;;;;;;;;;;5117309;28;20028;-60
2024/02/20 02:09:41;;;;;;;43.38;5.72;;;;;;;;;;5116511;28;20256;-58
2024/02/20 02:12:06;;;;;;;40.30;5.97;;;;;;;;;;5117091;28;20047;-58
2024/02/20 02:14:31;;;;;;;52.97;7.10;;;;;;;;;;5117334;28;20117;-57
2024/02/20 02:16:57;;;;;;;37.47;5.53;;;;;;;;;;5115837;28;20091;-58
2024/02/20 02:19:23;;;;;;;41.50;6.28;;;;;;;;;;5104139;28;20032;-59
2024/02/20 02:21:48;;;;;;;31.57;5.10;;;;;;;;;;5116645;28;20028;-59
2024/02/20 02:24:14;;;;;;;37.40;5.97;;;;;;;;;;5129061;28;20264;-57
2024/02/20 02:26:40;;;;;;;47.28;7.15;;;;;;;;;;5123131;28;20039;-58
2024/02/20 02:29:06;;;;;;;35.75;5.45;;;;;;;;;;5116918;28;20039;-61
2024/02/20 02:31:31;;;;;;;28.90;5.33;;;;;;;;;;5116154;28;20035;-59
2024/02/20 02:33:57;;;;;;;44.13;6.93;;;;;;;;;;5124492;28;20024;-58
2024/02/20 02:36:24;;;;;;;37.97;7.97;;;;;;;;;;5134966;28;20058;-59
2024/02/20 02:38:53;;;;;;;48.07;6.63;;;;;;;;;;5117090;28;20367;-59
2024/02/20 02:41:21;;;;;;;41.83;6.93;;;;;;;;;;5102602;28;20325;-59
2024/02/20 02:43:46;;;;;;;36.70;6.20;;;;;;;;;;5111940;28;20318;-59
2024/02/20 02:46:12;;;;;;;55.03;7.10;;;;;;;;;;5116608;28;20280;-57
2024/02/20 02:48:38;;;;;;;44.80;7.43;;;;;;;;;;5116492;28;20035;-57
2024/02/20 02:51:08;;;;;;;30.53;5.73;;;;;;;;;;5116290;28;20043;-59
2024/02/20 02:53:34;;;;;;;38.40;5.40;;;;;;;;;;5105278;28;20024;-59
2024/02/20 02:55:59;;;;;;;53.28;7.53;;;;;;;;;;5119549;28;20296;-58
2024/02/20 02:58:25;;;;;;;40.50;6.87;;;;;;;;;;5116235;28;20074;-58
2024/02/20 03:00:50;;;;;;;32.77;5.57;;;;;;;;;;5106177;28;20084;-58
2024/02/20 03:03:16;;;;;;;32.47;5.93;;;;;;;;;;5100079;28;20269;-58
2024/02/20 03:05:41;;;;;;;27.60;4.90;;;;;;;;;;5113759;28;20043;-59
2024/02/20 03:08:07;;;;;;;39.38;5.80;;;;;;;;;;5104314;28;20067;-59
2024/02/20 03:10:32;;;;;;;33.77;5.43;;;;;;;;;;5116156;28;20131;-59
2024/02/20 03:12:57;;;;;;;28.43;7.27;;;;;;;;;;5116830;28;20268;-59
2024/02/20 03:15:24;;;;;;;44.72;6.97;;;;;;;;;;5126437;28;20028;-58
2024/02/20 03:17:50;;;;;;;63.88;10.23;;;;;;;;;;5104855;28;20042;-58
2024/02/20 03:20:16;;;;;;;59.40;9.73;;;;;;;;;;5106716;28;20029;-58
2024/02/20 03:22:42;;;;;;;55.93;9.67;;;;;;;;;;5111822;28;20043;-58
2024/02/20 03:25:07;;;;;;;50.72;9.60;;;;;;;;;;5115373;28;20271;-58
2024/02/20 03:27:33;;;;;;;71.07;10.02;;;;;;;;;;5124611;28;20060;-57
2024/02/20 03:29:58;;;;;;;61.35;9.07;;;;;;;;;;5115969;28;20028;-58
2024/02/20 03:32:25;;;;;;;59.40;8.43;;;;;;;;;;5115750;28;20028;-58
2024/02/20 03:34:50;;;;;;;56.55;8.10;;;;;;;;;;5123497;28;20098;-59
2024/02/20 03:37:16;;;;;;;41.30;6.43;;;;;;;;;;5124595;28;20035;-57
2024/02/20 03:39:41;;;;;;;35.20;8.50;;;;;;;;;;5113214;28;20308;-59
2024/02/20 03:42:06;;;;;;;42.87;7.33;;;;;;;;;;5115214;28;20062;-59
2024/02/20 03:44:32;;;;;;;57.83;10.65;;;;;;;;;;5117626;28;20051;-58
2024/02/20 03:46:58;;;;;;;64.07;9.98;;;;;;;;;;5115121;28;20035;-59
2024/02/20 03:49:23;;;;;;;61.53;10.23;;;;;;;;;;5116378;28;20028;-60
2024/02/20 03:51:49;;;;;;;70.57;11.60;;;;;;;;;;5114949;28;20040;-58
2024/02/20 03:54:14;;;;;;;60.57;10.50;;;;;;;;;;5122048;28;20032;-58
2024/02/20 03:56:40;;;;;;;43.53;8.93;;;;;;;;;;5121967;28;20335;-57
2024/02/20 03:59:05;;;;;;;58.47;8.43;;;;;;;;;;5121391;28;20032;-58
2024/02/20 04:01:30;;;;;;;63.70;12.83;;;;;;;;;;5119489;28;20030;-58
2024/02/20 04:03:56;;;;;;;29.27;8.90;;;;;;;;;;5118450;28;20020;-58
2024/02/20 04:06:21;;;;;;;48.83;8.00;;;;;;;;;;5120846;28;20032;-57
2024/02/20 04:08:46;;;;;;;39.97;6.40;;;;;;;;;;5128711;28;20277;-57
2024/02/20 04:11:12;;;;;;;43.93;5.97;;;;;;;;;;5119702;28;20031;-59
2024/02/20 04:13:38;;;;;;;38.27;6.00;;;;;;;;;;5115116;28;20249;-59
2024/02/20 04:16:03;;;;;;;40.93;7.10;;;;;;;;;;5119628;28;20268;-59
2024/02/20 04:18:29;;;;;;;46.85;6.57;;;;;;;;;;5123205;28;20031;-58
2024/02/20 04:20:54;;;;;;;41.25;7.13;;;;;;;;;;5114988;28;20091;-59
2024/02/20 04:23:20;;;;;;;39.50;6.33;;;;;;;;;;5114938;28;20066;-58
2024/02/20 04:25:45;;;;;;;42.83;7.07;;;;;;;;;;5117410;28;20265;-57
2024/02/20 04:28:10;;;;;;;39.47;5.70;;;;;;;;;;5114018;28;20058;-58
2024/02/20 04:30:39;;;;;;;38.35;5.28;;;;;;;;;;5124576;28;20039;-56
2024/02/20 04:33:04;;;;;;;27.60;5.17;;;;;;;;;;5114944;28;20068;-57
2024/02/20 04:35:30;;;;;;;40.30;5.78;;;;;;;;;;5125152;28;20249;-59
2024/02/20 04:37:56;;;;;;;39.47;5.47;;;;;;;;;;5114901;28;20028;-57
2024/02/20 04:40:24;;;;;;;43.85;5.70;;;;;;;;;;5114608;28;20051;-57
2024/02/20 04:42:49;;;;;;;28.53;5.63;;;;;;;;;;5114751;28;20024;-58
2024/02/20 04:45:15;;;;;;;31.47;5.03;;;;;;;;;;5121388;28;20256;-58
2024/02/20 04:47:40;;;;;;;38.47;7.40;;;;;;;;;;5107113;28;20100;-58
2024/02/20 04:50:06;;;;;;;40.37;6.77;;;;;;;;;;5111783;28;20052;-59
2024/02/20 04:52:31;;;;;;;34.58;6.72;;;;;;;;;;5112052;28;20475;-58
2024/02/20 04:54:57;;;;;;;35.03;7.17;;;;;;;;;;5110120;28;20047;-58
2024/02/20 04:57:22;;;;;;;39.03;7.43;;;;;;;;;;5113708;28;20036;-58
2024/02/20 04:59:49;;;;;;;42.97;8.13;;;;;;;;;;5115330;28;20044;-60
2024/02/20 05:02:14;;;;;;;39.70;7.38;;;;;;;;;;5117322;28;20262;-60
2024/02/20 05:04:39;;;;;;;52.87;8.67;;;;;;;;;;5116071;28;20081;-59
2024/02/20 05:07:05;;;;;;;27.70;6.93;;;;;;;;;;5119640;28;20035;-58
2024/02/20 05:09:31;;;;;;;39.60;7.13;;;;;;;;;;5118950;28;20024;-59
2024/02/20 05:11:58;;;;;;;49.87;9.83;;;;;;;;;;5126786;28;20039;-60
2024/02/20 05:14:23;;;;;;;53.20;8.90;;;;;;;;;;5107075;28;20286;-59
2024/02/20 05:16:49;;;;;;;51.67;8.23;;;;;;;;;;5119607;28;20360;-56
2024/02/20 05:19:14;;;;;;;45.53;7.90;;;;;;;;;;5116015;28;20031;-58
2024/02/20 05:21:41;;;;;;;48.30;8.53;;;;;;;;;;5117883;28;20036;-59
2024/02/20 05:24:07;;;;;;;42.40;8.53;;;;;;;;;;5117526;28;20358;-59
2024/02/20 05:26:32;;;;;;;33.95;7.65;;;;;;;;;;5123882;28;20260;-60
2024/02/20 05:28:58;;;;;;;49.67;8.13;;;;;;;;;;5118060;28;20084;-58
2024/02/20 05:31:31;;;;;;;49.08;8.23;;;;;;;;;;5117792;28;20083;-57
2024/02/20 05:33:57;;;;;;;41.97;7.90;;;;;;;;;;5100667;28;20066;-59
2024/02/20 05:36:25;;;;;;;36.10;7.50;;;;;;;;;;5117539;28;20257;-60
2024/02/20 05:38:51;;;;;;;37.33;7.20;;;;;;;;;;5119188;28;20020;-57
2024/02/20 05:41:16;;;;;;;51.53;8.17;;;;;;;;;;5115464;28;20260;-57
2024/02/20 05:43:42;;;;;;;46.45;8.13;;;;;;;;;;5116349;28;20091;-58
2024/02/20 05:46:07;;;;;;;42.57;6.90;;;;;;;;;;5120076;28;20051;-57
2024/02/20 05:48:33;;;;;;;42.47;7.73;;;;;;;;;;5122643;28;20260;-59
2024/02/20 05:50:58;;;;;;;33.83;6.63;;;;;;;;;;5119036;28;20031;-61
2024/02/20 05:53:23;;;;;;;38.67;8.20;;;;;;;;;;5118545;28;20043;-60
2024/02/20 05:55:49;;;;;;;35.47;8.10;;;;;;;;;;5119438;28;20027;-59
2024/02/20 05:58:15;;;;;;;31.17;7.37;;;;;;;;;;5122408;28;20043;-58
2024/02/20 06:00:40;;;;;;;46.90;7.23;;;;;;;;;;5119533;28;20309;-59
2024/02/20 06:03:05;;;;;;;49.37;8.57;;;;;;;;;;5116568;28;20035;-59
2024/02/20 06:05:31;;;;;;;37.37;7.77;;;;;;;;;;5117311;28;20036;-58
2024/02/20 06:07:57;;;;;;;37.58;8.10;;;;;;;;;;5117186;28;20077;-59
2024/02/20 06:10:22;;;;;;;33.70;8.63;;;;;;;;;;5118796;28;20043;-57
2024/02/20 06:12:47;;;;;;;45.30;8.13;;;;;;;;;;5104633;28;20021;-58
2024/02/20 06:15:13;;;;;;;42.73;8.43;;;;;;;;;;5095032;28;20028;-58
2024/02/20 06:17:39;;;;;;;41.70;7.88;;;;;;;;;;5109630;28;20031;-57
2024/02/20 06:20:04;;;;;;;37.33;7.07;;;;;;;;;;5118347;28;20032;-57
2024/02/20 06:22:30;;;;;;;29.58;8.73;;;;;;;;;;5115465;28;20036;-59
2024/02/20 06:24:55;;;;;;;33.17;7.93;;;;;;;;;;5116553;28;20052;-59
2024/02/20 06:27:21;;;;;;;39.93;8.87;;;;;;;;;;5113780;28;20259;-58
2024/02/20 06:29:46;;;;;;;42.83;9.13;;;;;;;;;;5115553;28;20036;-57
2024/02/20 06:32:11;;;;;;;54.13;8.53;;;;;;;;;;5122881;28;20028;-54
2024/02/20 06:34:37;;;;;;;39.53;10.15;;;;;;;;;;5116651;28;20028;-59
2024/02/20 06:37:02;;;;;;;47.42;8.50;;;;;;;;;;5124935;28;20032;-59
2024/02/20 06:39:28;;;;;;;40.78;9.07;;;;;;;;;;5110555;28;20033;-58
2024/02/20 06:41:54;;;;;;;48.53;8.73;;;;;;;;;;5107937;28;20016;-59
2024/02/20 06:44:19;;;;;;;51.72;10.65;;;;;;;;;;5116361;28;20028;-59
2024/02/20 06:46:45;;;;;;;41.60;8.27;;;;;;;;;;5111682;28;20050;-57
2024/02/20 06:49:10;;;;;;;38.10;8.90;;;;;;;;;;5122790;28;20285;-59
2024/02/20 06:51:36;;;;;;;50.42;9.77;;;;;;;;;;5113488;28;20039;-59
2024/02/20 06:54:03;;;;;;;41.47;10.17;;;;;;;;;;5114589;28;20031;-59
2024/02/20 06:56:29;;;;;;;33.07;9.23;;;;;;;;;;5124559;28;20043;-59
2024/02/20 06:58:55;;;;;;;38.55;8.70;;;;;;;;;;5117242;28;20277;-59
2024/02/20 07:01:20;;;;;;;54.17;9.73;;;;;;;;;;5124174;28;20032;-59
2024/02/20 07:03:48;;;;;;;44.07;10.73;;;;;;;;;;5102659;28;20336;-58
2024/02/20 07:06:14;;;;;;;54.27;9.87;;;;;;;;;;5123099;28;20035;-58
2024/02/20 07:08:43;;;;;;;39.73;7.97;;;;;;;;;;5115875;28;20257;-58
2024/02/20 07:11:10;;;;;;;56.20;9.87;;;;;;;;;;5115737;28;20291;-58
2024/02/20 07:13:38;;;;;;;47.88;11.20;;;;;;;;;;5113724;28;20260;-59
2024/02/20 07:16:06;;;;;;;53.97;9.80;;;;;;;;;;5118690;28;20027;-59
2024/02/20 07:18:32;;;;;;;59.83;10.40;;;;;;;;;;5121521;28;20272;-59
2024/02/20 07:20:57;;;;;;;46.10;8.37;;;;;;;;;;5120828;28;20320;-56
2024/02/20 07:23:23;;;;;;;53.55;9.07;;;;;;;;;;5115348;28;20247;-59
2024/02/20 07:25:49;;;;;;;44.90;8.40;;;;;;;;;;5117774;28;20051;-58
2024/02/20 07:28:14;;;;;;;38.05;9.93;;;;;;;;;;5123233;28;20039;-56
2024/02/20 07:30:40;;;;;;;40.20;8.50;;;;;;;;;;5115631;28;20024;-58
2024/02/20 07:33:05;;;;;;;45.87;8.30;;;;;;;;;;5115484;28;20264;-59
2024/02/20 07:35:31;;;;;;;46.10;9.63;;;;;;;;;;5115333;28;20118;-57
2024/02/20 07:37:56;;;;;;;41.97;8.73;;;;;;;;;;5121721;28;20063;-58
2024/02/20 07:40:22;;;;;;;50.07;9.03;;;;;;;;;;5126507;28;20050;-58
2024/02/20 07:42:47;;;;;;;52.23;7.63;;;;;;;;;;5115250;28;20263;-63
2024/02/20 07:45:13;;;;;;;48.20;8.52;;;;;;;;;;5114504;28;20031;-59
2024/02/20 07:47:38;;;;;;;44.95;10.10;;;;;;;;;;5109718;28;20036;-59
2024/02/20 07:50:04;;;;;;;52.17;7.80;;;;;;;;;;5113827;28;20095;-61
2024/02/20 07:52:30;;;;;;;40.55;8.50;;;;;;;;;;5118037;28;20035;-60
2024/02/20 07:54:55;;;;;;;42.07;8.53;;;;;;;;;;5116138;28;20088;-59
2024/02/20 07:57:21;;;;;;;51.78;9.38;;;;;;;;;;5116392;28;20036;-59
2024/02/20 07:59:47;;;;;;;45.13;8.70;;;;;;;;;;5114684;28;20047;-59
2024/02/20 08:02:13;;;;;;;39.47;8.73;;;;;;;;;;5115155;28;20031;-60
2024/02/20 08:04:40;;;;;;;42.17;7.60;;;;;;;;;;5115716;28;20032;-57
2024/02/20 08:07:06;;;;;;;41.87;7.23;;;;;;;;;;5114989;28;20436;-59
2024/02/20 08:09:32;;;;;;;33.72;7.38;;;;;;;;;;5114192;28;20252;-59
2024/02/20 08:11:57;;;;;;;29.00;7.33;;;;;;;;;;5114554;28;20039;-58
2024/02/20 08:14:25;;;;;;;44.38;8.93;;;;;;;;;;5113686;28;20040;-57
2024/02/20 08:16:51;;;;;;;39.97;8.27;;;;;;;;;;5115993;28;20028;-58
2024/02/20 08:19:16;;;;;;;46.30;7.63;;;;;;;;;;5118599;28;20271;-59
2024/02/20 08:21:41;;;;;;;41.57;7.73;;;;;;;;;;5118916;28;20253;-59
2024/02/20 08:24:07;;;;;;;29.90;7.55;;;;;;;;;;5114454;28;20048;-58
2024/02/20 08:26:33;;;;;;;37.60;7.95;;;;;;;;;;5117506;28;20035;-60
2024/02/20 08:28:58;;;;;;;31.80;8.60;;;;;;;;;;5115751;28;20030;-59
2024/02/20 08:31:23;;;;;;;39.30;7.43;;;;;;;;;;5114692;28;20186;-59
2024/02/20 08:33:49;;;;;;;34.87;8.00;;;;;;;;;;5114552;28;20051;-60
2024/02/20 08:36:17;;;;;;;36.92;6.97;;;;;;;;;;5114168;28;20252;-60
2024/02/20 08:38:44;;;;;;;33.67;7.07;;;;;;;;;;5112539;28;20032;-58
2024/02/20 08:41:09;;;;;;;38.75;9.35;;;;;;;;;;5130988;28;20335;-58
2024/02/20 08:43:35;;;;;;;46.07;7.87;;;;;;;;;;5120201;28;20020;-58
2024/02/20 08:46:00;;;;;;;36.33;8.07;;;;;;;;;;5114022;28;20279;-56
2024/02/20 08:48:26;;;;;;;34.70;8.23;;;;;;;;;;5118188;28;20040;-57
2024/02/20 08:50:52;;;;;;;;;;;;;;;;;;5120294;28;20040;-55
2024/02/20 08:53:18;;;;;;;44.50;8.20;;;;;;;;;;5114292;28;20189;-59
2024/02/20 08:55:43;;;;;;;40.23;7.47;;;;;;;;;;5114561;28;20044;-60
2024/02/20 08:58:08;;;;;;;43.53;8.33;;;;;;;;;;5118180;28;20290;-57
2024/02/20 09:00:34;;;;;;;37.78;8.38;;;;;;;;;;5115767;28;20032;-59
2024/02/20 09:03:00;;;;;;;38.65;7.47;;;;;;;;;;5114853;28;20028;-59
2024/02/20 09:05:26;;;;;;;42.70;8.43;;;;;;;;;;5116230;28;20027;-59
2024/02/20 09:07:51;;;;;;;25.70;7.25;;;;;;;;;;5118275;28;20054;-60
2024/02/20 09:10:16;;;;;;;29.30;8.10;;;;;;;;;;5118423;28;20036;-60
2024/02/20 09:12:42;;;;;;;31.17;8.80;;;;;;;;;;5114743;28;20047;-59
2024/02/20 09:15:08;;;;;;;36.75;8.38;;;;;;;;;;5107261;28;20066;-57
2024/02/20 09:17:34;;;;;;;36.80;8.20;;;;;;;;;;5120844;28;20028;-59
2024/02/20 09:20:00;;;;;;;30.83;8.93;;;;;;;;;;5117687;28;20035;-58
2024/02/20 09:22:26;;;;;;;;;;;;;;;;;;5116916;28;20085;-59
2024/02/20 09:24:51;;;;;;;42.23;8.30;;;;;;;;;;5114265;28;19908;-59
2024/02/20 09:27:17;;;;;;;48.88;6.97;;;;;;;;;;5120842;28;20030;-59
2024/02/20 09:29:43;;;;;;;46.97;7.83;;;;;;;;;;5127240;28;20028;-59
2024/02/20 09:32:09;;;;;;;41.77;8.87;;;;;;;;;;5117223;28;20300;-58
2024/02/20 09:34:34;;;;;;;39.05;9.27;;;;;;;;;;5117691;28;20035;-59
2024/02/20 09:36:59;;;;;;;34.10;8.93;;;;;;;;;;5103850;28;20099;-58
2024/02/20 09:39:25;;;;;;;32.28;9.15;;;;;;;;;;5126356;28;20036;-60
2024/02/20 09:41:51;;;;;;;44.40;7.97;;;;;;;;;;5117171;28;20020;-58
2024/02/20 09:44:18;;;;;;;43.35;8.57;;;;;;;;;;5117666;28;20257;-58
2024/02/20 09:46:54;;;;;;;32.22;7.20;;;;;;;;;;5114952;28;20111;-58
2024/02/20 09:49:20;;;;;;;43.75;10.60;;;;;;;;;;5119376;28;20028;-59
2024/02/20 09:51:48;;;;;;;39.67;9.77;;;;;;;;;;5115815;28;20024;-58
2024/02/20 09:54:14;;;;;;;35.13;9.40;;;;;;;;;;5119743;28;20032;-60
2024/02/20 09:56:41;;;;;;;43.40;10.23;;;;;;;;;;5117199;28;20279;-56
2024/02/20 09:59:07;;;;;;;37.28;8.30;;;;;;;;;;5120311;28;20028;-58
2024/02/20 10:01:33;;;;;;;46.15;9.07;;;;;;;;;;5113555;28;20040;-60
2024/02/20 10:04:02;;;;;;;31.85;7.18;;;;;;;;;;5114073;28;20066;-58
2024/02/20 10:06:30;;;;;;;39.23;8.23;;;;;;;;;;5113272;28;20035;-60
2024/02/20 10:08:55;;;;;;;33.43;8.07;;;;;;;;;;5117337;28;20264;-60
2024/02/20 10:11:21;;;;;;;29.00;6.72;;;;;;;;;;5114781;28;20248;-60
2024/02/20 10:13:47;;;;;;;31.20;7.28;;;;;;;;;;5121063;28;20036;-58
2024/02/20 10:16:15;;;;;;;29.08;7.30;;;;;;;;;;5112477;28;20043;-59
2024/02/20 10:18:42;;;;;;;42.20;8.53;;;;;;;;;;5126028;28;20059;-60
2024/02/20 10:21:08;;;;;;;46.60;8.52;;;;;;;;;;5115944;28;20256;-58
2024/02/20 10:23:34;;;;;;;32.00;7.70;;;;;;;;;;5115443;28;20043;-59
2024/02/20 10:26:02;;;;;;;33.83;8.37;;;;;;;;;;5107167;28;20031;-60
2024/02/20 10:28:28;;;;;;;35.10;8.67;;;;;;;;;;5123594;28;20055;-58
2024/02/20 10:30:55;;;;;;;36.03;8.07;;;;;;;;;;5114345;28;20273;-56
2024/02/20 10:33:21;;;;;;;31.70;7.23;;;;;;;;;;5110913;28;20058;-59
2024/02/20 10:35:47;;;;;;;32.60;9.43;;;;;;;;;;5116570;28;20269;-56
2024/02/20 10:38:18;;;;;;;33.67;9.73;;;;;;;;;;5119789;28;20091;-57
2024/02/20 10:40:44;;;;;;;39.27;7.50;;;;;;;;;;5119559;28;20044;-57
2024/02/20 10:43:10;;;;;;;30.90;9.40;;;;;;;;;;5124615;28;20267;-55
2024/02/20 10:45:36;;;;;;;30.70;7.53;;;;;;;;;;5119674;28;20092;-59
2024/02/20 10:48:03;;;;;;;34.20;8.40;;;;;;;;;;5118745;28;20328;-58
2024/02/20 10:50:31;;;;;;;29.20;7.97;;;;;;;;;;5119524;28;20028;-58
2024/02/20 10:52:59;;;;;;;35.20;7.70;;;;;;;;;;5115682;28;20032;-59
2024/02/20 10:55:25;;;;;;;29.03;7.80;;;;;;;;;;5115942;28;20256;-56
2024/02/20 10:57:51;;;;;;;41.30;9.67;;;;;;;;;;5106060;28;20284;-59
2024/02/20 11:00:18;;;;;;;32.63;9.43;;;;;;;;;;5111129;28;20048;-59
2024/02/20 11:02:48;;;;;;;35.17;8.53;;;;;;;;;;5114872;28;20088;-58
2024/02/20 11:05:14;;;;;;;37.40;9.40;;;;;;;;;;5115946;28;20257;-55
2024/02/20 11:07:40;;;;;;;34.30;7.70;;;;;;;;;;5115836;28;20268;-59
2024/02/20 11:10:06;;;;;;;42.67;8.70;;;;;;;;;;5117537;28;20035;-59
2024/02/20 11:12:32;;;;;;;;;;;;;;;;;;5105985;28;20064;-60
2024/02/20 11:15:20;;;;;;;33.93;7.70;;;;;;;;;;5114893;28;19908;-57
2024/02/20 11:17:45;;;;;;;37.23;7.83;;;;;;;;;;5098257;28;20071;-59
2024/02/20 11:20:18;;;;;;;33.72;8.80;;;;;;;;;;5118088;28;20332;-60
2024/02/20 11:22:44;;;;;;;32.87;8.90;;;;;;;;;;5106889;28;20055;-60
2024/02/20 11:25:12;;;;;;;23.42;8.38;;;;;;;;;;5111965;28;20296;-58
2024/02/20 11:27:41;;;;;;;27.97;7.93;;;;;;;;;;5115250;28;20028;-57
2024/02/20 11:30:26;;;;;;;27.47;7.47;;;;;;;;;;5118376;28;20267;-60
2024/02/20 11:32:53;;;;;;;38.00;8.63;;;;;;;;;;5106466;28;20044;-59
2024/02/20 11:35:27;;;;;;;43.75;9.55;;;;;;;;;;5115290;28;20035;-58
2024/02/20 11:37:54;;;;;;;31.87;8.53;;;;;;;;;;5103745;28;20060;-57
2024/02/20 11:40:25;;;;;;;31.10;7.38;;;;;;;;;;5109213;28;20043;-58
2024/02/20 11:42:52;;;;;;;22.43;7.53;;;;;;;;;;5112790;28;20020;-58
2024/02/20 11:45:19;;;;;;;25.65;6.78;;;;;;;;;;5115068;28;20020;-59
2024/02/20 11:48:04;;;;;;;21.87;7.37;;;;;;;;;;5114754;28;20056;-59
2024/02/20 11:50:39;;;;;;;27.60;7.77;;;;;;;;;;5126474;28;20042;-56
2024/02/20 11:53:09;;;;;;;42.30;6.77;;;;;;;;;;5125400;28;20028;-59
2024/02/20 11:55:35;;;;;;;26.53;7.30;;;;;;;;;;5105302;28;20058;-60
2024/02/20 11:58:02;;;;;;;31.08;8.60;;;;;;;;;;5112173;28;20024;-59
2024/02/20 12:00:37;;;;;;;31.07;8.23;;;;;;;;;;5124352;28;20036;-59
2024/02/20 12:03:04;;;;;;;20.70;7.27;;;;;;;;;;5116595;28;20043;-60
2024/02/20 12:05:37;;;;;;;27.52;6.35;;;;;;;;;;5114668;28;20031;-58
2024/02/20 12:08:10;;;;;;;28.57;7.07;;;;;;;;;;5114576;28;20032;-60
2024/02/20 12:10:36;;;;;;;36.47;7.27;;;;;;;;;;5108008;28;20087;-60
2024/02/20 12:13:10;;;;;;;33.95;8.55;;;;;;;;;;5113236;28;20028;-59
2024/02/20 12:15:36;;;;;;;26.23;6.57;;;;;;;;;;5113881;28;20040;-59
2024/02/20 12:18:01;;;;;;;26.80;8.13;;;;;;;;;;5114774;28;20039;-58
2024/02/20 12:20:27;;;;;;;27.57;7.00;;;;;;;;;;5118451;28;20058;-60
2024/02/20 12:22:57;;;;;;;32.90;7.75;;;;;;;;;;5123147;28;20055;-59
2024/02/20 12:25:23;;;;;;;27.40;7.80;;;;;;;;;;5114271;28;20042;-58
2024/02/20 12:27:48;;;;;;;30.60;7.70;;;;;;;;;;5114138;28;20058;-59
2024/02/20 12:30:15;;;;;;;25.15;6.90;;;;;;;;;;5115421;28;20028;-59
2024/02/20 12:32:40;;;;;;;;;;;;;;;;;;5114482;28;20063;-60
2024/02/20 12:35:06;;;;;;;23.87;7.40;;;;;;;;;;5114372;28;19912;-58
2024/02/20 12:37:32;;;;;;;23.05;7.30;;;;;;;;;;5114437;28;20047;-59
2024/02/20 12:39:58;;;;;;;35.55;9.45;;;;;;;;;;5126038;28;20032;-59
2024/02/20 12:42:24;;;;;;;33.00;7.82;;;;;;;;;;5106484;28;20029;-58
2024/02/20 12:44:51;;;;;;;30.65;7.82;;;;;;;;;;5116846;28;20032;-59
2024/02/20 12:47:16;;;;;;;32.00;6.77;;;;;;;;;;5114285;28;20050;-59
2024/02/20 12:49:42;;;;;;;31.40;7.47;;;;;;;;;;5124049;28;20095;-58
2024/02/20 12:52:08;;;;;;;29.75;6.25;;;;;;;;;;5113899;28;20043;-58
2024/02/20 12:54:33;;;;;;;34.03;8.35;;;;;;;;;;5115410;28;20039;-60
2024/02/20 12:56:59;;;;;;;25.73;6.80;;;;;;;;;;5114417;28;20075;-59
2024/02/20 12:59:25;;;;;;;36.10;8.73;;;;;;;;;;5119871;28;20291;-60
2024/02/20 13:01:51;;;;;;;35.40;8.05;;;;;;;;;;5114041;28;20047;-58
2024/02/20 13:04:16;;;;;;;28.15;6.88;;;;;;;;;;5109586;28;20035;-60
2024/02/20 13:06:42;;;;;;;32.00;7.03;;;;;;;;;;5113868;28;20034;-59
2024/02/20 13:09:08;;;;;;;27.55;6.22;;;;;;;;;;5114966;28;20026;-59
2024/02/20 13:11:33;;;;;;;27.00;6.30;;;;;;;;;;5113913;28;20095;-57
2024/02/20 13:13:59;;;;;;;34.20;7.50;;;;;;;;;;5117197;28;20031;-59
2024/02/20 13:16:25;;;;;;;32.45;6.68;;;;;;;;;;5114382;28;20265;-59
2024/02/20 13:18:51;;;;;;;29.58;7.35;;;;;;;;;;5113828;28;20043;-59
2024/02/20 13:21:16;;;;;;;23.23;4.15;;;;;;;;;;5106818;28;20029;-58
2024/02/20 13:23:42;;;;;;;26.60;4.65;;;;;;;;;;5114031;28;20024;-58
2024/02/20 13:26:08;;;;;;;26.10;4.47;;;;;;;;;;5120892;28;20034;-58
2024/02/20 13:28:34;;;;;;;23.40;5.25;;;;;;;;;;5117219;28;20044;-59
2024/02/20 13:31:00;;;;;;;23.98;4.85;;;;;;;;;;5129177;28;20058;-59
2024/02/20 13:33:25;;;;;;;15.53;3.83;;;;;;;;;;5117674;28;20032;-60
2024/02/20 13:35:51;;;;;;;28.15;4.45;;;;;;;;;;5117620;28;20269;-58
2024/02/20 13:38:16;;;;;;;19.20;4.63;;;;;;;;;;5116925;28;20171;-59
2024/02/20 13:40:42;;;;;;;25.98;5.22;;;;;;;;;;5124496;28;20023;-59
2024/02/20 13:43:10;;;;;;;;;;;;;;;;;;5117742;28;20032;-58
2024/02/20 13:45:51;;;;;;;15.20;3.60;;;;;;;;;;5117213;28;19971;-59
2024/02/20 13:48:18;;;;;;;23.13;5.03;;;;;;;;;;5116439;28;20028;-57
2024/02/20 13:50:45;;;;;;;29.17;5.80;;;;;;;;;;5120961;28;20028;-58
2024/02/20 13:53:13;;;;;;;24.77;4.70;;;;;;;;;;5124875;28;20762;-57
2024/02/20 13:55:40;;;;;;;20.73;4.87;;;;;;;;;;5126715;28;20057;-53
2024/02/20 13:58:05;;;;;;;31.88;5.78;;;;;;;;;;5118789;28;20088;-59
2024/02/20 14:00:31;;;;;;;19.20;5.28;;;;;;;;;;5108103;28;20027;-60
2024/02/20 14:02:57;;;;;;;26.50;5.32;;;;;;;;;;5102244;28;20035;-59
2024/02/20 14:05:22;;;;;;;24.55;5.10;;;;;;;;;;5107866;28;20024;-60
2024/02/20 14:07:48;;;;;;;27.50;5.88;;;;;;;;;;5116661;28;20028;-57
2024/02/20 14:10:17;;;;;;;24.08;4.85;;;;;;;;;;5127557;28;20052;-58
2024/02/20 14:12:42;;;;;;;22.97;4.67;;;;;;;;;;5118267;28;20059;-59
2024/02/20 14:15:09;;;;;;;33.35;5.75;;;;;;;;;;5116680;28;20032;-59
2024/02/20 14:17:35;;;;;;;28.13;5.10;;;;;;;;;;5117176;28;20043;-59
2024/02/20 14:20:03;;;;;;;19.75;4.32;;;;;;;;;;5125306;28;20027;-59
2024/02/20 14:22:29;;;;;;;22.53;4.67;;;;;;;;;;5117867;28;20043;-59
2024/02/20 14:24:55;;;;;;;21.98;5.10;;;;;;;;;;5122413;28;20016;-59